Time;durP1;ratioP1;P1;durP2;ratioP2;P2;SDS_P1;SDS_P2;PMS_P1;PMS_P2;Temp;Humidity;BMP_temperature;BMP_pressure;BME280_temperature;BME280_humidity;BME280_pressure;Samples;Min_cycle;Max_cycle;Signal;HPM_P1;HPM_P2
2023/01/02 00:00:00;;;;;;;14.68;4.85;;;;;;;12.21;100.00;100981.63;5203331;28;20021;-83
2023/01/02 00:02:30;;;;;;;11.77;4.50;;;;;;;12.26;100.00;100976.56;5204097;28;20390;-83
2023/01/02 00:05:01;;;;;;;20.58;5.00;;;;;;;12.33;100.00;100982.91;5203715;28;20028;-83
2023/01/02 00:07:31;;;;;;;16.63;4.95;;;;;;;12.39;100.00;100980.34;5204044;28;20029;-82
2023/01/02 00:10:02;;;;;;;13.02;4.25;;;;;;;12.41;100.00;100983.72;5203603;28;20112;-83
2023/01/02 00:12:33;;;;;;;10.15;4.63;;;;;;;12.46;100.00;100982.34;5210723;28;20471;-83
2023/01/02 00:15:04;;;;;;;13.48;4.30;;;;;;;12.49;100.00;100973.91;5210597;28;20030;-83
2023/01/02 00:17:34;;;;;;;15.07;4.90;;;;;;;12.60;100.00;100968.13;5209909;28;20088;-83
2023/01/02 00:20:05;;;;;;;12.75;4.38;;;;;;;12.65;100.00;100966.63;5211374;28;20036;-83
2023/01/02 00:22:36;;;;;;;12.15;3.50;;;;;;;12.74;100.00;100966.53;5209904;28;20021;-83
2023/01/02 00:25:06;;;;;;;7.28;3.58;;;;;;;12.79;100.00;100970.38;5210081;28;20097;-83
2023/01/02 00:27:37;;;;;;;13.30;4.20;;;;;;;12.76;100.00;100972.59;5210135;28;20081;-83
2023/01/02 00:30:08;;;;;;;22.23;5.40;;;;;;;12.74;100.00;100969.25;5210764;28;20111;-83
2023/01/02 00:32:38;;;;;;;13.60;4.15;;;;;;;12.78;100.00;100970.56;5211711;28;20028;-83
2023/01/02 00:35:09;;;;;;;13.10;4.22;;;;;;;12.79;100.00;100978.44;5204080;28;20053;-83
2023/01/02 00:37:39;;;;;;;14.43;3.78;;;;;;;12.78;100.00;100971.41;5219307;28;20037;-83
2023/01/02 00:40:13;;;;;;;12.75;3.25;;;;;;;12.77;100.00;100969.72;5218277;28;20026;-83
2023/01/02 00:42:43;;;;;;;11.63;3.53;;;;;;;12.78;100.00;100974.09;5218517;28;20121;-83
2023/01/02 00:45:14;;;;;;;14.02;4.07;;;;;;;12.72;100.00;100964.03;5218924;28;20025;-82
2023/01/02 00:47:44;;;;;;;10.07;3.28;;;;;;;12.70;100.00;100964.22;5218490;28;20025;-83
2023/01/02 00:50:15;;;;;;;16.85;4.32;;;;;;;12.69;100.00;100975.97;5216166;28;20033;-83
2023/01/02 00:52:45;;;;;;;10.00;4.15;;;;;;;12.73;100.00;100978.34;5215797;28;20018;-83
2023/01/02 00:55:16;;;;;;;14.65;4.28;;;;;;;12.75;100.00;100968.22;5218861;28;20075;-82
2023/01/02 00:57:46;;;;;;;14.60;3.75;;;;;;;12.72;100.00;100969.41;5218310;28;20101;-82
2023/01/02 01:00:17;;;;;;;14.57;4.10;;;;;;;12.71;100.00;100970.44;5217711;28;20033;-82
2023/01/02 01:02:47;;;;;;;18.58;4.90;;;;;;;12.82;100.00;100966.50;5218176;28;20021;-83
2023/01/02 01:05:18;;;;;;;18.95;4.32;;;;;;;12.84;100.00;100956.38;5216774;28;20029;-83
2023/01/02 01:07:48;;;;;;;15.60;3.95;;;;;;;12.80;100.00;100955.06;5214357;28;20049;-82
2023/01/02 01:10:19;;;;;;;14.82;4.53;;;;;;;12.81;100.00;100943.31;5208569;28;20025;-83
2023/01/02 01:12:49;;;;;;;13.05;3.50;;;;;;;12.80;100.00;100949.69;5210056;28;20021;-82
2023/01/02 01:15:20;;;;;;;14.95;5.13;;;;;;;12.83;100.00;100946.63;5209230;28;20028;-82
2023/01/02 01:17:50;;;;;;;14.40;4.53;;;;;;;12.82;100.00;100948.50;5213415;28;20025;-82
2023/01/02 01:20:21;;;;;;;9.98;4.00;;;;;;;12.80;100.00;100957.75;5212138;28;20116;-82
2023/01/02 01:22:51;;;;;;;12.95;4.20;;;;;;;12.84;100.00;100961.78;5215142;28;20017;-82
2023/01/02 01:25:22;;;;;;;9.82;3.50;;;;;;;12.84;100.00;100975.22;5218381;28;20025;-82
2023/01/02 01:27:53;;;;;;;12.20;3.60;;;;;;;12.88;100.00;100968.47;5217877;28;20068;-82
2023/01/02 01:30:23;;;;;;;17.33;4.82;;;;;;;12.87;100.00;100974.88;5216747;28;20132;-82
2023/01/02 01:32:54;;;;;;;11.65;3.45;;;;;;;12.81;100.00;100964.84;5217510;28;20056;-83
2023/01/02 01:35:24;;;;;;;13.63;3.53;;;;;;;12.82;100.00;100971.88;5216670;28;20025;-83
2023/01/02 01:37:54;;;;;;;13.07;3.63;;;;;;;12.81;100.00;100964.84;5213887;28;20100;-82
2023/01/02 01:40:25;;;;;;;13.23;3.80;;;;;;;12.78;100.00;100970.56;5213151;28;20026;-82
2023/01/02 01:42:55;;;;;;;14.57;4.18;;;;;;;12.77;100.00;100966.19;5213431;28;20118;-82
2023/01/02 01:45:26;;;;;;;16.17;4.18;;;;;;;12.79;100.00;100966.84;5212997;28;20029;-82
2023/01/02 01:47:59;;;;;;;12.00;3.90;;;;;;;12.86;100.00;100968.66;5212184;28;20049;-83
2023/01/02 01:50:34;;;;;;;13.40;4.18;;;;;;;12.80;100.00;100968.53;5213896;28;20029;-82
2023/01/02 01:53:10;;;;;;;13.30;3.50;;;;;;;12.76;100.00;100976.13;5213427;28;20083;-82
2023/01/02 01:55:50;;;;;;;10.98;4.57;;;;;;;12.74;100.00;100970.06;5213703;28;20029;-82
2023/01/02 01:58:42;;;;;;;7.72;3.30;;;;;;;12.70;100.00;100976.81;5214325;28;20044;-83
2023/01/02 02:01:15;;;;;;;11.57;3.72;;;;;;;12.69;100.00;100986.75;5199393;28;20037;-83
2023/01/02 02:03:47;;;;;;;13.52;3.92;;;;;;;12.67;100.00;100979.88;5212900;28;20029;-83
2023/01/02 02:06:18;;;;;;;10.93;3.80;;;;;;;12.69;100.00;100981.38;5212887;28;20502;-83
2023/01/02 02:08:59;;;;;;;11.63;3.58;;;;;;;12.69;100.00;100984.06;5212083;28;20090;-83
2023/01/02 02:11:30;;;;;;;10.25;3.47;;;;;;;12.73;100.00;100978.34;5213090;28;20037;-83
2023/01/02 02:14:01;;;;;;;12.07;3.72;;;;;;;12.70;100.00;100974.13;5208259;28;20510;-83
2023/01/02 02:16:55;;;;;;;13.20;3.95;;;;;;;12.68;100.00;100998.53;5205753;28;20033;-83
2023/01/02 02:20:00;;;;;;;10.00;3.85;;;;;;;12.63;100.00;101000.91;5206672;28;20031;-83
2023/01/02 02:22:40;;;;;;;12.73;3.50;;;;;;;12.63;100.00;101002.78;5206597;28;20055;-82
2023/01/02 02:25:26;;;;;;;11.00;4.22;;;;;;;12.58;100.00;101008.69;5215959;28;20056;-82
2023/01/02 02:28:26;;;;;;;16.42;3.92;;;;;;;12.61;100.00;101011.03;5216799;28;20036;-83
2023/01/02 02:31:24;;;;;;;13.73;3.17;;;;;;;12.55;100.00;101017.13;5196249;28;20025;-83
2023/01/02 02:34:23;;;;;;;11.98;3.60;;;;;;;12.55;100.00;101021.66;5212368;28;20202;-83
2023/01/02 02:37:05;;;;;;;14.95;3.97;;;;;;;12.57;100.00;101023.16;5212707;28;20025;-83
2023/01/02 02:39:53;;;;;;;17.75;4.57;;;;;;;12.59;100.00;101022.97;5211926;28;20032;-83
2023/01/02 02:42:36;;;;;;;13.88;3.78;;;;;;;12.54;100.00;101023.50;5213088;28;20021;-83
2023/01/02 02:45:09;;;;;;;10.68;3.60;;;;;;;12.55;100.00;101018.94;5212491;28;20045;-83
2023/01/02 02:47:46;;;;;;;12.10;4.22;;;;;;;12.55;100.00;101013.56;5211630;28;20041;-83
2023/01/02 02:50:41;;;;;;;9.63;3.50;;;;;;;12.59;100.00;101015.75;5211111;28;20033;-83
2023/01/02 02:53:21;;;;;;;9.27;4.25;;;;;;;12.56;100.00;101009.88;5211222;28;20079;-83
2023/01/02 02:55:58;;;;;;;6.25;3.33;;;;;;;12.51;100.00;101002.34;5212439;28;20032;-83
2023/01/02 02:58:35;;;;;;;14.35;3.70;;;;;;;12.47;100.00;100994.78;5212009;28;20359;-84
2023/01/02 03:01:11;;;;;;;14.63;4.00;;;;;;;12.48;100.00;101001.84;5211321;28;20049;-84
2023/01/02 03:03:42;;;;;;;13.98;4.07;;;;;;;12.49;100.00;100996.28;5212308;28;20021;-83
2023/01/02 03:06:15;;;;;;;10.10;4.53;;;;;;;12.42;100.00;100990.75;5213268;28;20033;-83
2023/01/02 03:08:58;;;;;;;17.10;4.32;;;;;;;12.35;100.00;100988.94;5212466;28;20060;-83
2023/01/02 03:11:54;;;;;;;14.57;3.80;;;;;;;12.33;100.00;100990.97;5210833;28;20053;-83
2023/01/02 03:14:53;;;;;;;15.80;4.85;;;;;;;12.38;100.00;100999.34;5212024;28;20109;-83
2023/01/02 03:18:01;;;;;;;9.77;3.67;;;;;;;12.41;100.00;100991.78;5175679;28;20041;-83
2023/01/02 03:20:37;;;;;;;9.77;3.75;;;;;;;12.48;100.00;100991.91;5210100;28;20028;-83
2023/01/02 03:23:22;;;;;;;17.23;4.18;;;;;;;12.51;100.00;100993.44;5211036;28;20025;-83
2023/01/02 03:25:54;;;;;;;8.52;3.35;;;;;;;12.53;100.00;100997.59;5211514;28;20108;-83
2023/01/02 03:28:25;;;;;;;8.10;3.88;;;;;;;12.56;100.00;100994.56;5211829;28;20014;-83
2023/01/02 03:30:59;;;;;;;10.80;3.67;;;;;;;12.58;100.00;100992.53;5209672;28;20024;-83
2023/01/02 03:33:34;;;;;;;7.60;3.33;;;;;;;12.57;100.00;100998.94;5209960;28;20148;-83
2023/01/02 03:36:11;;;;;;;11.65;3.88;;;;;;;12.56;100.00;100999.13;5211307;28;20026;-83
2023/01/02 03:38:51;;;;;;;14.77;3.53;;;;;;;12.60;100.00;101006.69;5211589;28;20028;-83
2023/01/02 03:41:32;;;;;;;7.70;3.13;;;;;;;12.64;100.00;100985.59;5211278;28;20025;-83
2023/01/02 03:44:06;;;;;;;7.22;2.88;;;;;;;12.67;100.00;101007.63;5211460;28;20036;-83
2023/01/02 03:46:54;;;;;;;15.33;3.33;;;;;;;12.71;100.00;101008.13;5210901;28;20486;-83
2023/01/02 03:49:33;;;;;;;11.65;3.17;;;;;;;12.73;100.00;101003.41;5211524;28;20029;-83
2023/01/02 03:52:04;;;;;;;7.15;2.92;;;;;;;12.72;100.00;101015.19;5210849;28;20018;-83
2023/01/02 03:54:34;;;;;;;11.23;3.33;;;;;;;12.72;100.00;101025.13;5211763;28;20032;-83
2023/01/02 03:57:44;;;;;;;9.52;3.13;;;;;;;12.75;100.00;101038.22;5210829;28;20029;-83
2023/01/02 04:00:17;;;;;;;7.60;3.30;;;;;;;12.73;100.00;101027.63;5161009;28;20100;-83
2023/01/02 04:03:19;;;;;;;5.43;2.45;;;;;;;12.69;100.00;101034.38;5208838;28;20025;-85
2023/01/02 04:05:58;;;;;;;10.43;3.67;;;;;;;12.59;100.00;101036.44;5211718;28;20474;-81
2023/01/02 04:08:38;;;;;;;8.23;3.10;;;;;;;12.62;100.00;101045.00;5217703;28;20029;-81
2023/01/02 04:11:09;;;;;;;10.02;3.42;;;;;;;12.54;100.00;101034.25;5218902;28;20021;-81
2023/01/02 04:13:48;;;;;;;7.40;2.83;;;;;;;12.54;100.00;101031.56;5219313;28;20029;-81
2023/01/02 04:16:24;;;;;;;14.10;4.30;;;;;;;12.45;100.00;101035.34;5219823;28;20053;-81
2023/01/02 04:19:01;;;;;;;9.48;3.70;;;;;;;12.39;100.00;101044.06;5218673;28;20026;-81
2023/01/02 04:21:34;;;;;;;6.60;2.92;;;;;;;12.38;100.00;101045.09;5218335;28;20049;-81
2023/01/02 04:24:09;;;;;;;8.27;2.85;;;;;;;12.35;100.00;101053.50;5218032;28;20029;-80
2023/01/02 04:27:12;;;;;;;5.97;2.72;;;;;;;12.36;100.00;101047.97;5218350;28;20033;-81
2023/01/02 04:29:42;;;;;;;7.35;2.60;;;;;;;12.39;100.00;101050.28;5218180;28;20069;-81
2023/01/02 04:32:22;;;;;;;10.25;3.15;;;;;;;12.44;100.00;101056.00;5219184;28;20030;-81
2023/01/02 04:34:53;;;;;;;8.95;3.05;;;;;;;12.46;100.00;101071.97;5217516;28;20089;-81
2023/01/02 04:37:26;;;;;;;7.97;2.58;;;;;;;12.48;100.00;101064.56;5218279;28;20025;-81
2023/01/02 04:40:01;;;;;;;8.23;3.20;;;;;;;12.43;100.00;101077.69;5219546;28;20022;-80
2023/01/02 04:42:31;;;;;;;8.02;2.63;;;;;;;12.43;100.00;101078.53;5219046;28;20018;-80
2023/01/02 04:45:02;;;;;;;9.23;2.65;;;;;;;12.44;100.00;101076.69;5218671;28;20075;-81
2023/01/02 04:47:33;;;;;;;8.80;2.60;;;;;;;12.42;100.00;101076.88;5217121;28;20051;-81
2023/01/02 04:50:04;;;;;;;7.97;2.42;;;;;;;12.42;100.00;101079.56;5219633;28;20048;-81
2023/01/02 04:52:35;;;;;;;13.30;3.08;;;;;;;12.36;100.00;101101.78;5222213;28;20029;-81
2023/01/02 04:55:09;;;;;;;5.65;2.70;;;;;;;12.35;100.00;101085.78;5215940;28;20024;-81
2023/01/02 04:57:40;;;;;;;12.00;2.78;;;;;;;12.38;100.00;101093.53;5209640;28;20037;-81
2023/01/02 05:00:11;;;;;;;7.30;3.22;;;;;;;12.29;100.00;101098.06;5213301;28;20071;-81
2023/01/02 05:02:41;;;;;;;14.73;3.30;;;;;;;12.28;100.00;101099.09;5212075;28;20032;-81
2023/01/02 05:05:12;;;;;;;10.30;2.67;;;;;;;12.25;100.00;101099.44;5213516;28;20053;-81
2023/01/02 05:07:42;;;;;;;11.43;2.88;;;;;;;12.21;100.00;101100.78;5212707;28;20037;-81
2023/01/02 05:10:12;;;;;;;8.13;2.47;;;;;;;12.15;100.00;101102.31;5212516;28;20115;-81
2023/01/02 05:12:43;;;;;;;9.27;3.10;;;;;;;12.15;100.00;101093.41;5213087;28;20117;-81
2023/01/02 05:15:13;;;;;;;8.13;2.90;;;;;;;12.07;100.00;101112.25;5213124;28;20501;-81
2023/01/02 05:17:44;;;;;;;6.05;2.35;;;;;;;12.02;100.00;101115.44;5212755;28;20029;-81
2023/01/02 05:20:14;;;;;;;6.32;1.98;;;;;;;12.01;100.00;101118.31;5213471;28;20140;-81
2023/01/02 05:25:34;;;;;;;5.25;2.03;;;;;;;12.04;100.00;101134.06;5213142;28;20044;-81
2023/01/02 05:28:05;;;;;;;7.97;2.38;;;;;;;11.99;100.00;101139.97;5213275;28;20048;-81
2023/01/02 05:30:38;;;;;;;5.43;2.22;;;;;;;11.98;100.00;101135.59;5213043;28;20030;-81
2023/01/02 05:33:09;;;;;;;9.23;2.15;;;;;;;11.97;100.00;101141.16;5212887;28;20025;-81
2023/01/02 05:35:39;;;;;;;5.60;2.08;;;;;;;11.91;100.00;101139.97;5212166;28;20031;-81
2023/01/02 05:38:10;;;;;;;11.85;2.20;;;;;;;11.93;100.00;101149.53;5211895;28;20029;-81
2023/01/02 05:40:40;;;;;;;4.88;2.13;;;;;;;11.90;100.00;101149.91;5211726;28;20029;-81
2023/01/02 05:43:11;;;;;;;4.55;2.42;;;;;;;11.89;100.00;101156.25;5212680;28;20022;-81
2023/01/02 05:45:41;;;;;;;7.40;2.15;;;;;;;11.85;100.00;101156.78;5212623;28;20060;-81
2023/01/02 05:48:11;;;;;;;8.50;2.30;;;;;;;11.81;100.00;101166.16;5211702;28;20024;-81
2023/01/02 05:50:42;;;;;;;7.40;2.35;;;;;;;11.80;100.00;101167.16;5212805;28;20029;-81
2023/01/02 05:53:12;;;;;;;7.93;2.90;;;;;;;11.78;100.00;101174.53;5212356;28;20029;-81
2023/01/02 05:55:43;;;;;;;6.05;2.03;;;;;;;11.77;100.00;101175.53;5212113;28;20021;-81
2023/01/02 05:58:13;;;;;;;7.00;3.13;;;;;;;11.67;100.00;101194.50;5211360;28;20482;-81
2023/01/02 06:00:44;;;;;;;5.93;2.47;;;;;;;11.61;100.00;101224.72;5212134;28;20029;-81
2023/01/02 06:03:14;;;;;;;6.45;2.42;;;;;;;11.52;100.00;101226.56;5211688;28;20040;-81
2023/01/02 06:05:44;;;;;;;3.67;1.73;;;;;;;11.35;100.00;101233.72;5211391;28;20123;-81
2023/01/02 06:08:15;;;;;;;4.35;1.75;;;;;;;11.22;100.00;101236.00;5212157;28;20021;-80
2023/01/02 06:10:51;;;;;;;2.05;1.63;;;;;;;11.01;100.00;101232.88;5210068;28;20110;-80
2023/01/02 06:13:22;;;;;;;2.13;1.60;;;;;;;10.91;100.00;101232.16;5211765;28;20124;-81
2023/01/02 06:15:54;;;;;;;4.03;1.30;;;;;;;10.85;100.00;101242.53;5211180;28;20494;-80
2023/01/02 06:18:25;;;;;;;2.20;1.30;;;;;;;10.74;100.00;101248.13;5211263;28;20029;-81
2023/01/02 06:21:00;;;;;;;1.13;1.00;;;;;;;10.66;100.00;101256.16;5207651;28;20460;-83
2023/01/02 06:23:31;;;;;;;2.17;1.30;;;;;;;10.55;100.00;101259.94;5205471;28;20486;-83
2023/01/02 06:26:07;;;;;;;3.75;3.38;;;;;;;10.53;100.00;101261.91;5205394;28;20025;-85
2023/01/02 06:28:38;;;;;;;34.10;17.83;;;;;;;10.44;100.00;101267.34;5206454;28;20033;-82
2023/01/02 06:31:14;;;;;;;4.68;2.80;;;;;;;10.34;100.00;101275.50;5204839;28;20041;-83
2023/01/02 06:33:45;;;;;;;6.40;4.65;;;;;;;10.28;100.00;101276.13;5198458;28;20032;-82
2023/01/02 06:36:17;;;;;;;7.93;6.25;;;;;;;10.23;100.00;101300.66;5200635;28;20030;-82
2023/01/02 06:38:48;;;;;;;9.18;6.07;;;;;;;10.18;100.00;101311.00;5206935;28;20049;-83
2023/01/02 06:41:19;;;;;;;13.63;9.48;;;;;;;10.10;100.00;101314.47;5206890;28;20049;-83
2023/01/02 06:43:51;;;;;;;21.90;10.95;;;;;;;10.06;100.00;101326.47;5205767;28;20021;-82
2023/01/02 06:46:22;;;;;;;29.80;16.02;;;;;;;10.03;100.00;101334.81;5206688;28;20425;-83
2023/01/02 06:48:53;;;;;;;22.88;13.43;;;;;;;9.98;100.00;101342.47;5205439;28;20021;-83
2023/01/02 06:51:23;;;;;;;6.75;4.50;;;;;;;9.98;100.00;101347.81;5207208;28;20470;-80
2023/01/02 06:53:54;;;;;;;13.88;8.95;;;;;;;9.94;100.00;101367.03;5205235;28;20060;-82
2023/01/02 06:56:24;;;;;;;15.82;11.13;;;;;;;9.93;100.00;101368.88;5206662;28;20430;-82
2023/01/02 06:58:55;;;;;;;10.60;6.88;;;;;;;9.93;100.00;101376.06;5205822;28;20025;-82
2023/01/02 07:01:25;;;;;;;10.98;6.25;;;;;;;9.90;100.00;101381.75;5206396;28;20025;-83
2023/01/02 07:03:56;;;;;;;12.95;6.63;;;;;;;9.88;100.00;101392.59;5206796;28;20484;-83
2023/01/02 07:06:26;;;;;;;15.48;6.13;;;;;;;9.86;100.00;101394.59;5205391;28;20359;-83
2023/01/02 07:08:57;;;;;;;16.17;6.40;;;;;;;9.85;100.00;101399.13;5205456;28;20040;-84
2023/01/02 07:11:27;;;;;;;23.63;11.20;;;;;;;9.81;100.00;101405.75;5204214;28;20013;-85
2023/01/02 07:13:58;;;;;;;30.60;14.18;;;;;;;9.81;100.00;101413.78;5203494;28;20029;-83
2023/01/02 07:16:29;;;;;;;25.27;12.45;;;;;;;9.79;100.00;101409.59;5205024;28;20026;-82
2023/01/02 07:18:59;;;;;;;34.00;15.52;;;;;;;9.78;100.00;101414.06;5205659;28;20478;-82
2023/01/02 07:21:30;;;;;;;26.30;9.27;;;;;;;9.72;100.00;101417.34;5204355;28;20025;-83
2023/01/02 07:24:00;;;;;;;26.33;9.35;;;;;;;9.67;100.00;101418.78;5205739;28;20424;-82
2023/01/02 07:26:31;;;;;;;18.70;7.53;;;;;;;9.69;100.00;101425.69;5205880;28;20040;-83
2023/01/02 07:29:01;;;;;;;20.60;8.10;;;;;;;9.67;100.00;101430.34;5206553;28;20021;-82
2023/01/02 07:31:32;;;;;;;24.85;10.73;;;;;;;9.65;100.00;101435.00;5205227;28;20474;-82
2023/01/02 07:34:02;;;;;;;30.40;12.70;;;;;;;9.63;100.00;101434.28;5205406;28;20031;-83
2023/01/02 07:36:33;;;;;;;19.90;7.68;;;;;;;9.62;100.00;101445.16;5206221;28;20021;-82
2023/01/02 07:39:03;;;;;;;23.40;8.98;;;;;;;9.60;100.00;101448.84;5206286;28;20024;-82
2023/01/02 07:41:34;;;;;;;24.48;8.80;;;;;;;9.58;100.00;101442.78;5204852;28;20048;-82
2023/01/02 07:44:05;;;;;;;21.35;9.40;;;;;;;9.57;100.00;101451.81;5206670;28;20017;-82
2023/01/02 07:46:35;;;;;;;24.65;10.15;;;;;;;9.58;100.00;101464.19;5206389;28;20448;-82
2023/01/02 07:49:06;;;;;;;20.15;7.68;;;;;;;9.56;100.00;101473.38;5206963;28;20543;-81
2023/01/02 07:51:37;;;;;;;137.18;56.35;;;;;;;9.55;100.00;101479.75;5206580;28;20032;-82
2023/01/02 07:54:07;;;;;;;68.07;38.35;;;;;;;9.57;100.00;101483.09;5206169;28;20025;-82
2023/01/02 07:56:38;;;;;;;33.30;17.88;;;;;;;9.58;100.00;101487.47;5205685;28;20022;-81
2023/01/02 07:59:08;;;;;;;22.92;10.60;;;;;;;9.59;100.00;101490.03;5205599;28;20061;-82
2023/01/02 08:01:39;;;;;;;25.38;11.90;;;;;;;9.59;100.00;101497.22;5207129;28;20088;-82
2023/01/02 08:04:09;;;;;;;22.95;9.20;;;;;;;9.60;100.00;101497.06;5207328;28;20025;-82
2023/01/02 08:06:40;;;;;;;23.17;8.85;;;;;;;9.58;100.00;101496.34;5206846;28;20030;-83
2023/01/02 08:09:10;;;;;;;20.98;9.70;;;;;;;9.63;100.00;101508.47;5206161;28;20036;-82
2023/01/02 08:11:41;;;;;;;25.23;11.18;;;;;;;9.58;100.00;101495.50;5207290;28;20052;-82
2023/01/02 08:14:11;;;;;;;22.05;10.02;;;;;;;9.57;100.00;101501.84;5206948;28;20030;-82
2023/01/02 08:16:41;;;;;;;21.02;9.93;;;;;;;9.56;100.00;101510.88;5207772;28;20121;-81
2023/01/02 08:19:12;;;;;;;21.15;10.98;;;;;;;9.58;100.00;101517.78;5207051;28;20048;-82
2023/01/02 08:21:42;;;;;;;23.60;10.48;;;;;;;9.54;100.00;101515.56;5207167;28;20026;-81
2023/01/02 08:24:13;;;;;;;21.92;9.73;;;;;;;9.55;100.00;101519.91;5206979;28;20116;-81
2023/01/02 08:26:43;;;;;;;22.65;9.73;;;;;;;9.53;100.00;101527.22;5211449;28;20025;-82
2023/01/02 08:29:14;;;;;;;28.75;10.32;;;;;;;9.54;100.00;101527.13;5214371;28;20088;-82
2023/01/02 08:31:45;;;;;;;26.20;9.88;;;;;;;9.56;100.00;101541.19;5213405;28;20035;-84
2023/01/02 08:34:16;;;;;;;26.33;9.90;;;;;;;9.56;100.00;101530.47;5212139;28;20029;-85
2023/01/02 08:36:46;;;;;;;24.40;9.63;;;;;;;9.50;100.00;101536.41;5211152;28;20540;-84
2023/01/02 08:39:17;;;;;;;23.27;9.77;;;;;;;9.51;100.00;101535.41;5212385;28;20025;-84
2023/01/02 08:41:47;;;;;;;23.83;10.10;;;;;;;9.52;100.00;101534.44;5212392;28;20108;-85
2023/01/02 08:44:18;;;;;;;21.65;8.48;;;;;;;9.51;100.00;101542.63;5211711;28;20056;-85
2023/01/02 08:46:48;;;;;;;23.42;9.82;;;;;;;9.50;100.00;101547.13;5211117;28;20037;-84
2023/01/02 08:49:19;;;;;;;23.52;8.73;;;;;;;9.46;100.00;101553.75;5213721;28;20029;-84
2023/01/02 08:51:49;;;;;;;24.20;8.75;;;;;;;9.48;100.00;101559.78;5210903;28;20374;-85
2023/01/02 08:54:20;;;;;;;62.25;28.98;;;;;;;9.51;100.00;101569.41;5211262;28;20060;-84
2023/01/02 08:56:50;;;;;;;33.47;17.42;;;;;;;9.52;100.00;101577.28;5211248;28;20041;-85
2023/01/02 08:59:23;;;;;;;34.97;15.32;;;;;;;9.52;100.00;101587.16;5209564;28;20406;-85
2023/01/02 09:01:53;;;;;;;35.17;15.50;;;;;;;9.54;100.00;101580.69;5210786;28;20128;-84
2023/01/02 09:04:24;;;;;;;34.58;15.95;;;;;;;9.54;100.00;101596.75;5210394;28;20100;-85
2023/01/02 09:06:55;;;;;;;39.00;17.10;;;;;;;9.59;100.00;101599.84;5211035;28;20047;-85
2023/01/02 09:09:25;;;;;;;27.73;12.35;;;;;;;9.62;100.00;101598.72;5209485;28;20336;-85
2023/01/02 09:11:57;;;;;;;26.67;11.38;;;;;;;9.63;100.00;101595.03;5211336;28;20032;-84
2023/01/02 09:14:28;;;;;;;32.40;13.20;;;;;;;9.65;100.00;101595.75;5212773;28;20024;-82
2023/01/02 09:16:58;;;;;;;59.78;29.08;;;;;;;9.70;100.00;101603.38;5215626;28;20026;-82
2023/01/02 09:19:29;;;;;;;28.10;13.23;;;;;;;9.68;100.00;101597.28;5213535;28;20108;-83
2023/01/02 09:22:00;;;;;;;27.88;11.25;;;;;;;9.75;100.00;101603.78;5215073;28;20055;-82
2023/01/02 09:24:30;;;;;;;19.33;9.05;;;;;;;9.74;100.00;101612.78;5215192;28;20029;-83
2023/01/02 09:27:01;;;;;;;22.63;10.63;;;;;;;9.82;100.00;101608.44;5215974;28;20490;-83
2023/01/02 09:29:31;;;;;;;25.08;10.30;;;;;;;9.81;100.00;101614.78;5217557;28;20501;-83
2023/01/02 09:32:02;;;;;;;28.48;14.88;;;;;;;9.82;100.00;101610.25;5216249;28;20048;-84
2023/01/02 09:34:33;;;;;;;28.48;12.00;;;;;;;9.77;100.00;101633.97;5215550;28;20025;-83
2023/01/02 09:37:03;;;;;;;33.13;16.20;;;;;;;9.79;100.00;101640.88;5213039;28;20545;-83
2023/01/02 09:39:33;;;;;;;24.48;10.77;;;;;;;9.80;100.00;101637.22;5211907;28;20017;-82
2023/01/02 09:42:07;;;;;;;281.02;114.80;;;;;;;9.81;100.00;101632.69;5212927;28;20512;-83
2023/01/02 09:44:39;;;;;;;34.45;14.45;;;;;;;9.78;100.00;101631.13;5213348;28;20021;-83
2023/01/02 09:47:10;;;;;;;22.27;9.40;;;;;;;9.79;100.00;101648.09;5213271;28;20025;-83
2023/01/02 09:50:22;;;;;;;20.20;9.20;;;;;;;9.82;100.00;101643.25;5213139;28;20116;-83
2023/01/02 09:52:56;;;;;;;16.75;7.05;;;;;;;9.75;100.00;101638.63;5162261;28;20379;-83
2023/01/02 09:56:01;;;;;;;16.27;8.38;;;;;;;9.83;100.00;101642.28;5215249;28;20025;-83
2023/01/02 09:58:47;;;;;;;19.65;8.73;;;;;;;9.99;100.00;101655.13;5215012;28;20021;-83
2023/01/02 10:01:43;;;;;;;14.25;7.35;;;;;;;10.17;100.00;101659.75;5201597;28;20487;-84
2023/01/02 10:04:32;;;;;;;15.27;7.20;;;;;;;10.29;100.00;101672.00;5209803;28;20040;-85
2023/01/02 10:07:15;;;;;;;14.40;6.68;;;;;;;10.28;100.00;101656.91;5207502;28;20478;-85
2023/01/02 10:10:06;;;;;;;14.07;7.40;;;;;;;10.30;100.00;101668.38;5207294;28;20029;-84
2023/01/02 10:12:55;;;;;;;10.95;6.15;;;;;;;10.27;100.00;101674.00;5207063;28;20437;-85
2023/01/02 10:15:27;;;;;;;11.93;5.80;;;;;;;10.26;100.00;101675.00;5207063;28;20029;-85
2023/01/02 10:18:17;;;;;;;14.18;6.07;;;;;;;10.29;100.00;101677.38;5205762;28;20017;-85
2023/01/02 10:20:55;;;;;;;15.48;5.80;;;;;;;10.26;100.00;101681.22;5206447;28;20552;-85
2023/01/02 10:23:48;;;;;;;11.75;6.20;;;;;;;10.18;100.00;101688.25;5206631;28;20028;-85
2023/01/02 10:26:23;;;;;;;10.77;5.30;;;;;;;10.19;100.00;101692.59;5205200;28;20035;-85
2023/01/02 10:29:02;;;;;;;10.45;6.28;;;;;;;10.19;100.00;101689.91;5205075;28;20025;-85
2023/01/02 10:31:57;;;;;;;9.68;5.63;;;;;;;10.27;100.00;101684.72;5206091;28;20018;-85
2023/01/02 10:34:42;;;;;;;11.38;5.10;;;;;;;10.37;100.00;101696.28;5193324;28;20045;-85
2023/01/02 10:37:14;;;;;;;11.82;5.78;;;;;;;10.37;100.00;101696.28;5205015;28;20071;-84
2023/01/02 10:39:48;;;;;;;10.80;5.25;;;;;;;10.34;100.00;101694.75;5204679;28;20030;-85
2023/01/02 10:42:19;;;;;;;11.18;5.93;;;;;;;10.36;100.00;101694.59;5204871;28;20375;-85
2023/01/02 10:44:50;;;;;;;9.02;5.68;;;;;;;10.35;100.00;101685.72;5206070;28;20033;-84
2023/01/02 10:47:37;;;;;;;12.68;5.60;;;;;;;10.37;100.00;101689.09;5204824;28;20086;-85
2023/01/02 10:50:20;;;;;;;10.48;5.95;;;;;;;10.33;100.00;101685.00;5205539;28;20033;-85
2023/01/02 10:53:02;;;;;;;10.52;5.15;;;;;;;10.41;100.00;101697.69;5206316;28;20021;-85
2023/01/02 10:55:37;;;;;;;10.93;4.60;;;;;;;10.40;100.00;101693.34;5205704;28;20018;-85
2023/01/02 10:58:28;;;;;;;10.55;5.03;;;;;;;10.28;100.00;101686.41;5206268;28;20060;-85
2023/01/02 11:01:17;;;;;;;10.98;4.35;;;;;;;10.38;100.00;101695.28;5205834;28;20087;-85
2023/01/02 11:03:54;;;;;;;9.10;5.13;;;;;;;10.42;100.00;101703.91;5206157;28;20387;-85
2023/01/02 11:06:27;;;;;;;6.28;3.88;;;;;;;10.41;100.00;101707.59;5205895;28;20041;-85
2023/01/02 11:09:16;;;;;;;7.22;3.58;;;;;;;10.40;100.00;101695.16;5205886;28;20021;-85
2023/01/02 11:11:52;;;;;;;8.45;3.45;;;;;;;10.44;100.00;101704.59;5206041;28;20021;-85
2023/01/02 11:14:27;;;;;;;6.18;3.40;;;;;;;10.46;100.00;101692.75;5204619;28;20124;-85
2023/01/02 11:17:05;;;;;;;6.60;4.60;;;;;;;10.43;100.00;101690.34;5206554;28;20025;-85
2023/01/02 11:19:55;;;;;;;8.57;3.20;;;;;;;10.40;100.00;101689.81;5205130;28;20037;-85
2023/01/02 11:22:35;;;;;;;6.20;4.15;;;;;;;10.43;100.00;101690.34;5205472;28;20022;-85
2023/01/02 11:25:20;;;;;;;7.28;3.40;;;;;;;10.42;100.00;101703.91;5205062;28;20033;-85
2023/01/02 11:27:56;;;;;;;6.93;3.45;;;;;;;10.37;100.00;101707.03;5204688;28;20029;-85
2023/01/02 11:30:43;;;;;;;9.07;4.45;;;;;;;10.36;100.00;101703.50;5205140;28;20104;-85
2023/01/02 11:33:13;;;;;;;8.93;5.43;;;;;;;10.36;100.00;101711.53;5200257;28;20104;-85
2023/01/02 11:35:50;;;;;;;8.18;3.30;;;;;;;10.37;100.00;101710.53;5194026;28;20116;-85
2023/01/02 11:38:25;;;;;;;10.38;3.85;;;;;;;10.32;100.00;101712.81;5203479;28;20035;-85
2023/01/02 11:40:57;;;;;;;;;;;;;;;10.33;100.00;101711.81;5203828;28;20044;-85
2023/01/02 11:43:50;;;;;;;8.82;3.70;;;;;;;10.29;100.00;101721.16;5204843;28;19956;-85
2023/01/02 11:46:25;;;;;;;6.97;3.67;;;;;;;10.22;100.00;101724.50;5203616;28;20553;-85
2023/01/02 11:49:02;;;;;;;7.55;3.50;;;;;;;10.19;100.00;101732.81;5203976;28;20029;-85